createdAt,value
2023-01-29T03:54:01.190Z,18.60
2023-01-29T03:56:42.378Z,21.90
2023-01-29T03:59:46.350Z,21.10
2023-01-29T04:03:00.883Z,19.10
2023-01-29T04:05:31.635Z,19.60
2023-01-29T04:08:13.085Z,18.20
2023-01-29T04:10:41.986Z,17.50
2023-01-29T04:13:11.807Z,17.40
2023-01-29T04:15:46.376Z,16.60
2023-01-29T04:18:14.385Z,16.90
2023-01-29T04:21:01.148Z,17.40
2023-01-29T04:23:30.020Z,16.30
2023-01-29T04:26:21.827Z,16.40
2023-01-29T04:29:12.158Z,16.20
2023-01-29T04:32:03.869Z,16.80
2023-01-29T04:34:44.050Z,16.60
2023-01-29T04:37:44.312Z,16.20
2023-01-29T04:40:20.360Z,15.00
2023-01-29T04:43:06.663Z,17.10
2023-01-29T04:45:45.183Z,16.90
2023-01-29T04:48:32.229Z,17.80
2023-01-29T04:51:09.862Z,16.30
2023-01-29T04:54:00.455Z,16.70
2023-01-29T04:56:36.365Z,17.00
2023-01-29T04:59:07.145Z,16.40
2023-01-29T05:01:35.853Z,17.40
2023-01-29T05:04:06.899Z,17.50
2023-01-29T05:06:35.199Z,16.50
2023-01-29T05:09:04.441Z,16.60
2023-01-29T05:11:32.874Z,17.10
2023-01-29T05:14:02.881Z,15.40
2023-01-29T05:16:41.918Z,17.00
2023-01-29T05:19:11.439Z,15.40
2023-01-29T05:21:41.100Z,17.00
2023-01-29T05:24:25.660Z,15.60
2023-01-29T05:27:16.544Z,18.10
2023-01-29T05:29:47.905Z,16.80
2023-01-29T05:32:16.085Z,19.20
2023-01-29T05:34:44.091Z,18.60
2023-01-29T05:37:12.358Z,18.90
2023-01-29T05:39:40.244Z,19.50
2023-01-29T05:42:08.154Z,17.20
2023-01-29T05:44:37.077Z,17.40
2023-01-29T05:47:05.199Z,17.70
2023-01-29T05:49:33.243Z,16.10
2023-01-29T05:52:01.293Z,17.30
2023-01-29T05:54:29.830Z,16.70
2023-01-29T05:56:57.784Z,16.70
2023-01-29T05:59:25.975Z,18.30
2023-01-29T06:01:54.138Z,18.70
2023-01-29T06:04:22.158Z,17.00
2023-01-29T06:06:50.253Z,18.30
2023-01-29T06:09:18.734Z,16.60
2023-01-29T06:11:46.875Z,16.50
2023-01-29T06:14:15.292Z,17.50
2023-01-29T06:16:43.288Z,17.30
2023-01-29T06:19:11.303Z,18.80
2023-01-29T06:21:39.508Z,17.00
2023-01-29T06:24:08.354Z,17.60
2023-01-29T06:26:36.452Z,18.70
2023-01-29T06:29:04.905Z,17.30
2023-01-29T06:31:38.764Z,17.60
2023-01-29T06:34:10.174Z,17.40
2023-01-29T06:36:38.081Z,18.10
2023-01-29T06:39:06.513Z,17.60
2023-01-29T06:41:35.303Z,17.20
2023-01-29T06:44:03.282Z,17.40
2023-01-29T06:46:33.100Z,17.00
2023-01-29T06:49:01.375Z,17.40
2023-01-29T06:51:30.528Z,17.60
2023-01-29T06:53:58.625Z,18.40
2023-01-29T06:56:26.699Z,18.00
2023-01-29T06:58:54.789Z,18.40
2023-01-29T07:01:35.003Z,20.30
2023-01-29T07:04:04.216Z,19.60
2023-01-29T07:06:33.627Z,19.70
2023-01-29T07:09:02.820Z,19.90
2023-01-29T07:11:37.994Z,20.70
2023-01-29T07:14:06.174Z,19.80
2023-01-29T07:16:34.216Z,19.00
2023-01-29T07:19:02.356Z,20.00
2023-01-29T07:21:30.381Z,19.00
2023-01-29T07:23:58.343Z,19.30
2023-01-29T07:26:26.489Z,18.80
2023-01-29T07:28:54.507Z,19.60
2023-01-29T07:31:23.245Z,20.00
2023-01-29T07:33:52.968Z,21.00
2023-01-29T07:36:21.122Z,19.90
2023-01-29T07:38:50.762Z,20.10
2023-01-29T07:41:18.875Z,18.80
2023-01-29T07:43:47.604Z,19.60
2023-01-29T12:20:41.349Z,11.40
2023-01-29T12:23:21.527Z,10.20
2023-01-29T12:26:06.240Z,11.70
2023-01-29T12:28:40.323Z,11.60
2023-01-29T12:31:48.975Z,11.50
2023-01-29T12:34:45.253Z,11.60
2023-01-29T12:37:24.519Z,13.20
2023-01-29T12:39:52.473Z,32.10
2023-01-29T12:42:23.860Z,18.60
2023-01-29T12:44:53.072Z,13.00
2023-01-29T12:47:24.819Z,13.40
2023-01-29T12:49:55.586Z,12.10
2023-01-29T12:52:47.930Z,18.50
2023-01-29T12:55:28.055Z,15.30
2023-01-29T12:57:57.621Z,12.40
2023-01-29T13:00:31.804Z,13.20
2023-01-29T13:03:19.977Z,13.00
2023-01-29T13:05:49.081Z,13.80
2023-01-29T13:08:19.670Z,14.70
2023-01-29T13:10:49.985Z,12.60
2023-01-29T13:13:36.759Z,12.50
2023-01-29T13:16:07.512Z,12.90
2023-01-29T13:18:46.870Z,13.50
2023-01-29T13:21:42.153Z,19.20
2023-01-29T13:24:13.095Z,19.70
2023-01-29T13:26:41.192Z,17.00
2023-01-29T13:29:23.958Z,15.10
2023-01-29T13:31:53.027Z,17.80
2023-01-29T13:34:23.595Z,19.90
2023-01-29T13:36:56.311Z,20.10
2023-01-29T13:39:29.649Z,29.30
2023-01-29T13:41:59.257Z,28.00
2023-01-29T13:44:34.889Z,17.80
2023-01-29T13:47:20.399Z,24.40
2023-01-29T13:50:11.213Z,31.50
2023-01-29T13:52:55.404Z,25.70
2023-01-29T13:55:33.835Z,18.50
2023-01-29T13:58:05.407Z,19.90
2023-01-29T14:00:33.550Z,19.90
2023-01-29T14:03:01.741Z,15.30
2023-01-29T14:05:29.697Z,18.00
2023-01-29T14:08:13.809Z,16.10
2023-01-29T14:10:42.738Z,18.10
2023-01-29T14:13:18.300Z,12.80
2023-01-29T14:15:58.930Z,12.40
2023-01-29T14:18:34.401Z,13.20
2023-01-29T14:21:20.720Z,12.70
2023-01-29T14:23:53.151Z,12.10
2023-01-29T14:26:21.357Z,13.60
2023-01-29T14:29:00.462Z,12.10
2023-01-29T14:31:51.854Z,13.60
2023-01-29T14:34:29.127Z,11.50
2023-01-29T14:37:02.588Z,11.40
2023-01-29T14:39:38.371Z,11.90
2023-01-29T14:42:25.072Z,11.90
2023-01-29T14:44:54.708Z,12.00
2023-01-29T14:47:25.765Z,11.70
2023-01-29T14:49:57.286Z,11.50
2023-01-29T14:52:35.888Z,11.90
2023-01-29T14:55:06.984Z,13.60
2023-01-29T14:57:35.730Z,21.00
2023-01-29T15:00:05.888Z,27.00
2023-01-29T15:02:46.261Z,22.10
2023-01-29T15:05:18.671Z,17.90
2023-01-29T15:08:30.042Z,15.20
2023-01-29T15:11:19.581Z,12.50
2023-01-29T15:13:50.438Z,12.30
2023-01-29T15:16:21.151Z,11.60
2023-01-29T15:18:49.319Z,10.70
2023-01-29T15:21:18.364Z,10.80
2023-01-29T15:23:48.616Z,24.10
2023-01-29T15:26:22.447Z,27.70
2023-01-29T15:29:05.125Z,18.40
2023-01-29T15:31:34.274Z,23.50
2023-01-29T15:34:06.568Z,25.20
2023-01-29T15:36:34.569Z,18.80
2023-01-29T15:39:12.073Z,13.20
2023-01-29T15:41:40.339Z,11.50
2023-01-29T15:44:16.321Z,10.80
2023-01-29T15:46:46.128Z,9.70
2023-01-29T20:11:51.769Z,13.20
2023-01-29T20:14:20.049Z,12.70
2023-01-29T20:16:48.029Z,12.80
2023-01-29T20:19:16.138Z,14.60
2023-01-29T20:21:53.611Z,14.90
2023-01-29T20:24:21.716Z,16.10
2023-01-29T20:26:50.269Z,15.80
2023-01-29T20:29:18.616Z,15.70
2023-01-29T20:31:46.942Z,15.90
2023-01-29T20:34:17.432Z,16.10
2023-01-29T20:36:45.918Z,16.30
2023-01-29T20:39:14.068Z,16.70
2023-01-29T20:41:43.208Z,16.50
2023-01-29T20:44:11.183Z,15.20
2023-01-29T20:46:39.184Z,15.30
2023-01-29T20:49:11.945Z,15.60
2023-01-29T20:51:39.918Z,15.20
2023-01-29T20:54:08.086Z,16.20
2023-01-29T20:56:43.807Z,15.70
2023-01-29T20:59:14.304Z,13.20
2023-01-29T21:01:43.655Z,13.00
2023-01-29T21:04:11.749Z,13.30
2023-01-29T21:06:39.624Z,11.70
2023-01-29T21:09:08.264Z,12.00
2023-01-29T21:11:37.044Z,10.30
2023-01-29T21:14:05.744Z,12.40
2023-01-29T21:16:34.087Z,10.00
2023-01-29T21:19:02.026Z,10.20
2023-01-29T21:21:30.331Z,9.80
2023-01-29T21:23:58.527Z,9.20
2023-01-29T21:26:26.508Z,8.90
2023-01-29T21:28:54.692Z,9.30
2023-01-29T21:31:22.984Z,8.90
2023-01-29T21:33:51.196Z,10.50
2023-01-29T21:36:19.257Z,9.50
2023-01-29T21:38:47.564Z,9.70
2023-01-29T21:41:15.535Z,9.50
2023-01-29T21:43:44.547Z,9.10
2023-01-29T21:46:12.641Z,8.80
2023-01-29T21:48:40.854Z,8.40
2023-01-29T21:51:08.838Z,10.30
2023-01-29T21:53:37.342Z,14.20
2023-01-29T21:56:06.448Z,13.60
2023-01-29T21:58:34.724Z,11.70
2023-01-29T22:01:38.142Z,9.30
2023-01-29T22:04:08.720Z,8.00
2023-01-29T22:06:36.865Z,9.40
2023-01-29T22:09:07.506Z,8.50
2023-01-29T22:11:36.328Z,8.30
2023-01-29T22:14:05.335Z,7.60
2023-01-29T22:16:33.566Z,7.50
2023-01-29T22:19:02.583Z,7.10
2023-01-29T22:21:30.641Z,7.70
2023-01-29T22:23:58.582Z,8.40
2023-01-29T22:26:26.679Z,7.00
2023-01-29T22:28:54.558Z,6.40
2023-01-29T22:31:22.452Z,7.50
2023-01-29T22:33:50.661Z,7.50
2023-01-29T22:36:19.569Z,6.70
2023-01-29T22:38:47.669Z,7.60
2023-01-29T22:41:16.010Z,7.30
2023-01-29T22:43:44.160Z,7.00
2023-01-29T22:46:12.212Z,7.50
2023-01-29T22:48:42.106Z,7.80
2023-01-29T22:51:10.454Z,7.30
2023-01-29T22:53:49.005Z,8.30
2023-01-29T22:56:18.012Z,7.80
2023-01-29T22:58:50.154Z,9.60
2023-01-29T23:01:20.155Z,7.90
2023-01-29T23:03:48.075Z,9.00
2023-01-29T23:06:16.717Z,9.50
2023-01-29T23:08:44.907Z,9.20
2023-01-29T23:11:15.185Z,10.40
2023-01-29T23:13:53.780Z,11.10
2023-01-29T23:16:23.466Z,10.80
2023-01-29T23:18:53.661Z,12.00
2023-01-29T23:21:25.275Z,12.10
2023-01-29T23:23:55.569Z,11.20
2023-01-29T23:26:42.115Z,10.60
2023-01-29T23:29:10.144Z,10.50
2023-01-29T23:31:38.689Z,10.00
2023-01-29T23:34:06.748Z,9.40
2023-01-29T23:36:34.931Z,10.20
2023-01-29T23:39:02.940Z,9.80
2023-01-29T23:41:31.751Z,9.90
